Time;durP1;ratioP1;P1;durP2;ratioP2;P2;SDS_P1;SDS_P2;PMS_P1;PMS_P2;Temp;Humidity;BMP_temperature;BMP_pressure;BME280_temperature;BME280_humidity;BME280_pressure;Samples;Min_cycle;Max_cycle;Signal;HPM_P1;HPM_P2
2024/02/03 00:00:13;;;;;;;42.38;33.85;;;;;;;;;;10253924;28;20064;-64
2024/02/03 00:05:15;;;;;;;63.58;46.92;;;;;;;;;;10254224;28;20528;-63
2024/02/03 00:10:15;;;;;;;70.60;49.03;;;;;;;;;;10253443;28;20103;-62
2024/02/03 00:15:14;;;;;;;73.22;50.72;;;;;;;;;;10253969;28;20077;-62
2024/02/03 00:20:13;;;;;;;73.13;51.08;;;;;;;;;;10252114;28;20586;-62
2024/02/03 00:25:12;;;;;;;57.47;40.30;;;;;;;;;;10251451;28;20065;-62
2024/02/03 00:30:12;;;;;;;33.42;26.92;;;;;;;;;;10251213;28;20075;-61
2024/02/03 00:35:10;;;;;;;33.22;28.17;;;;;;;;;;10250647;28;20065;-61
2024/02/03 00:40:09;;;;;;;50.65;40.13;;;;;;;;;;10251840;28;20085;-62
2024/02/03 00:45:08;;;;;;;41.58;34.45;;;;;;;;;;10247474;28;20447;-62
2024/02/03 00:50:14;;;;;;;37.22;28.52;;;;;;;;;;10247384;28;20080;-62
2024/02/03 00:55:12;;;;;;;38.40;30.23;;;;;;;;;;10254148;28;20522;-63
2024/02/03 01:00:12;;;;;;;44.67;36.80;;;;;;;;;;10259584;28;20068;-61
2024/02/03 01:05:12;;;;;;;53.03;38.92;;;;;;;;;;10258926;28;20068;-62
2024/02/03 01:10:10;;;;;;;39.08;30.52;;;;;;;;;;10258624;28;20106;-61
2024/02/03 01:15:09;;;;;;;38.10;30.42;;;;;;;;;;10258876;28;20545;-63
2024/02/03 01:20:09;;;;;;;42.15;30.70;;;;;;;;;;10257871;28;20077;-62
2024/02/03 01:25:09;;;;;;;74.72;52.50;;;;;;;;;;10258331;28;20446;-63
2024/02/03 01:30:08;;;;;;;48.88;37.53;;;;;;;;;;10259919;28;20102;-62
2024/02/03 01:35:06;;;;;;;33.88;25.63;;;;;;;;;;10258780;28;20077;-63
2024/02/03 01:40:05;;;;;;;31.17;23.88;;;;;;;;;;10257373;28;20175;-62
2024/02/03 01:45:06;;;;;;;29.42;23.73;;;;;;;;;;10256467;28;20085;-62
2024/02/03 01:50:05;;;;;;;31.15;21.67;;;;;;;;;;10258060;28;20080;-63
2024/02/03 01:55:04;;;;;;;28.23;22.92;;;;;;;;;;10256781;28;20096;-63
2024/02/03 02:00:05;;;;;;;27.63;21.27;;;;;;;;;;10257329;28;20084;-62
2024/02/03 02:05:07;;;;;;;33.75;24.92;;;;;;;;;;10261228;28;20076;-64
2024/02/03 02:10:08;;;;;;;28.60;22.52;;;;;;;;;;10252741;28;20068;-64
2024/02/03 02:15:10;;;;;;;23.70;17.02;;;;;;;;;;10254967;28;20516;-62
2024/02/03 02:20:10;;;;;;;27.83;20.58;;;;;;;;;;10256172;28;20069;-62
2024/02/03 02:25:08;;;;;;;24.58;19.48;;;;;;;;;;10258293;28;20076;-63
2024/02/03 02:30:07;;;;;;;22.00;17.23;;;;;;;;;;10257050;28;20076;-63
2024/02/03 02:35:06;;;;;;;24.27;19.35;;;;;;;;;;10256799;28;20080;-63
2024/02/03 02:40:08;;;;;;;27.73;21.17;;;;;;;;;;10256904;28;20073;-63
2024/02/03 02:45:07;;;;;;;28.15;23.00;;;;;;;;;;10250995;28;20567;-63
2024/02/03 02:50:06;;;;;;;31.58;23.40;;;;;;;;;;10254250;28;20079;-63
2024/02/03 02:55:06;;;;;;;22.90;18.70;;;;;;;;;;10254923;28;20076;-62
2024/02/03 03:00:05;;;;;;;22.80;18.48;;;;;;;;;;10255543;28;20104;-62
2024/02/03 03:05:04;;;;;;;24.33;19.40;;;;;;;;;;10253451;28;20108;-61
2024/02/03 03:10:02;;;;;;;26.73;20.73;;;;;;;;;;10255043;28;20497;-62
2024/02/03 03:15:02;;;;;;;24.52;19.10;;;;;;;;;;10255307;28;20507;-62
2024/02/03 03:20:00;;;;;;;20.23;15.27;;;;;;;;;;10254424;28;20104;-62
2024/02/03 03:24:59;;;;;;;22.02;18.33;;;;;;;;;;10253769;28;20080;-62
2024/02/03 03:29:57;;;;;;;18.52;15.07;;;;;;;;;;10252285;28;20073;-63
2024/02/03 03:34:57;;;;;;;22.42;14.77;;;;;;;;;;10255115;28;20078;-63
2024/02/03 03:39:55;;;;;;;17.92;14.75;;;;;;;;;;10250093;28;20095;-63
2024/02/03 03:44:53;;;;;;;19.40;15.07;;;;;;;;;;10246251;28;20077;-62
2024/02/03 03:49:52;;;;;;;20.23;15.73;;;;;;;;;;10254585;28;20111;-62
2024/02/03 03:54:51;;;;;;;16.58;14.38;;;;;;;;;;10252666;28;20524;-62
2024/02/03 03:59:49;;;;;;;16.42;13.95;;;;;;;;;;10252378;28;20502;-63
2024/02/03 04:04:48;;;;;;;17.10;13.88;;;;;;;;;;10252951;28;20076;-62
2024/02/03 04:09:48;;;;;;;14.93;11.65;;;;;;;;;;10250763;28;20471;-63
2024/02/03 04:14:49;;;;;;;13.93;11.68;;;;;;;;;;10253226;28;20068;-63
2024/02/03 04:19:47;;;;;;;14.20;12.55;;;;;;;;;;10252203;28;20084;-63
2024/02/03 04:24:45;;;;;;;14.48;11.20;;;;;;;;;;10251534;28;20073;-62
2024/02/03 04:29:44;;;;;;;14.18;11.00;;;;;;;;;;10251236;28;20076;-62
2024/02/03 04:34:47;;;;;;;13.52;9.77;;;;;;;;;;10263093;28;20118;-62
2024/02/03 04:39:45;;;;;;;13.93;9.60;;;;;;;;;;10264717;28;20073;-62
2024/02/03 04:44:43;;;;;;;25.85;21.67;;;;;;;;;;10264492;28;20072;-63
2024/02/03 04:49:42;;;;;;;13.15;10.95;;;;;;;;;;10264189;28;20516;-63
2024/02/03 04:54:41;;;;;;;15.52;10.77;;;;;;;;;;10264130;28;20073;-63
2024/02/03 04:59:40;;;;;;;10.35;9.15;;;;;;;;;;10259315;28;20084;-63
2024/02/03 05:04:38;;;;;;;13.02;10.90;;;;;;;;;;10268045;28;20506;-63
2024/02/03 05:09:36;;;;;;;23.15;15.77;;;;;;;;;;10261353;28;20077;-63
2024/02/03 05:14:36;;;;;;;16.25;12.75;;;;;;;;;;10266066;28;20105;-63
2024/02/03 05:19:35;;;;;;;12.80;10.90;;;;;;;;;;10265292;28;20107;-63
2024/02/03 05:24:34;;;;;;;13.88;10.77;;;;;;;;;;10266191;28;20072;-62
2024/02/03 05:29:32;;;;;;;14.55;9.73;;;;;;;;;;10265754;28;20087;-62
2024/02/03 10:21:59;;;;;;;11.10;7.15;;;;;;;;;;10255978;28;20084;-62
2024/02/03 10:27:00;;;;;;;11.02;8.20;;;;;;;;;;10256495;28;20069;-62
2024/02/03 10:31:58;;;;;;;12.57;7.07;;;;;;;;;;10255666;28;20072;-62
2024/02/03 10:36:57;;;;;;;16.88;8.70;;;;;;;;;;10257074;28;20445;-63
2024/02/03 10:41:58;;;;;;;14.63;8.23;;;;;;;;;;10258306;28;20470;-63
2024/02/03 10:46:58;;;;;;;8.88;6.55;;;;;;;;;;10253780;28;20481;-63
2024/02/03 10:51:58;;;;;;;8.82;7.85;;;;;;;;;;10253570;28;20069;-62
2024/02/03 10:56:59;;;;;;;10.77;6.78;;;;;;;;;;10255539;28;20084;-63
2024/02/03 11:01:57;;;;;;;11.50;5.00;;;;;;;;;;10251906;28;20065;-63
2024/02/03 11:06:57;;;;;;;14.98;7.35;;;;;;;;;;10252425;28;20077;-63
2024/02/03 11:11:58;;;;;;;15.48;7.63;;;;;;;;;;10254094;28;20095;-63
2024/02/03 11:16:57;;;;;;;17.35;9.93;;;;;;;;;;10252713;28;20092;-63
2024/02/03 11:22:00;;;;;;;9.10;5.82;;;;;;;;;;10254801;28;20519;-61
2024/02/03 11:27:02;;;;;;;11.23;6.18;;;;;;;;;;10254965;28;20087;-62
2024/02/03 11:32:03;;;;;;;7.90;5.03;;;;;;;;;;10252591;28;20073;-63
2024/02/03 11:37:01;;;;;;;10.13;5.88;;;;;;;;;;10252801;28;20075;-63
2024/02/03 11:42:01;;;;;;;15.35;8.85;;;;;;;;;;10252991;28;20072;-63
2024/02/03 11:46:59;;;;;;;17.58;8.40;;;;;;;;;;10254117;28;20469;-62
2024/02/03 11:52:01;;;;;;;11.63;6.88;;;;;;;;;;10252082;28;20076;-62
2024/02/03 11:57:01;;;;;;;7.70;6.65;;;;;;;;;;10252547;28;20459;-61
2024/02/03 12:02:00;;;;;;;12.68;9.38;;;;;;;;;;10253483;28;20077;-61
2024/02/03 12:06:58;;;;;;;14.90;10.35;;;;;;;;;;10250143;28;20080;-62
2024/02/03 12:11:59;;;;;;;11.77;7.78;;;;;;;;;;10252274;28;20084;-63
2024/02/03 12:16:59;;;;;;;8.27;6.20;;;;;;;;;;10250899;28;20536;-61
2024/02/03 12:21:58;;;;;;;23.55;11.75;;;;;;;;;;10250387;28;20083;-62
2024/02/03 12:26:56;;;;;;;14.52;8.23;;;;;;;;;;10250053;28;20080;-62
2024/02/03 12:31:54;;;;;;;11.75;7.03;;;;;;;;;;10244643;28;20061;-61
2024/02/03 12:36:54;;;;;;;9.82;6.50;;;;;;;;;;10261830;28;20076;-62
2024/02/03 12:41:53;;;;;;;10.10;7.72;;;;;;;;;;10266108;28;20533;-62
2024/02/03 12:46:51;;;;;;;13.52;8.50;;;;;;;;;;10259840;28;20073;-62
2024/02/03 12:51:50;;;;;;;14.68;9.85;;;;;;;;;;10247506;28;20514;-63
2024/02/03 12:56:50;;;;;;;14.70;9.18;;;;;;;;;;10255362;28;20385;-62
2024/02/03 13:01:48;;;;;;;9.73;6.80;;;;;;;;;;10256560;28;20085;-62
2024/02/03 13:06:46;;;;;;;13.85;10.23;;;;;;;;;;10259342;28;20068;-62
2024/02/03 13:11:46;;;;;;;16.25;11.30;;;;;;;;;;10259546;28;20678;-62
2024/02/03 13:16:49;;;;;;;15.35;10.57;;;;;;;;;;10259137;28;20076;-62
2024/02/03 13:21:47;;;;;;;11.27;6.80;;;;;;;;;;10259036;28;20077;-62
2024/02/03 13:26:45;;;;;;;12.45;9.02;;;;;;;;;;10258299;28;20116;-63
2024/02/03 13:31:43;;;;;;;17.88;10.02;;;;;;;;;;10256627;28;20100;-62
2024/02/03 13:36:44;;;;;;;11.77;8.02;;;;;;;;;;10259450;28;20064;-62
2024/02/03 13:41:42;;;;;;;34.38;22.27;;;;;;;;;;10253963;28;20080;-63
2024/02/03 13:46:41;;;;;;;9.27;7.40;;;;;;;;;;10253221;28;20061;-63
2024/02/03 13:51:39;;;;;;;23.10;15.93;;;;;;;;;;10257512;28;20467;-62
2024/02/03 13:56:38;;;;;;;50.63;37.85;;;;;;;;;;10257057;28;20148;-62
2024/02/03 14:01:40;;;;;;;17.65;14.07;;;;;;;;;;10254483;28;20083;-61
2024/02/03 14:06:38;;;;;;;18.60;10.00;;;;;;;;;;10255658;28;20493;-63
2024/02/03 14:11:36;;;;;;;10.05;9.02;;;;;;;;;;10256999;28;20067;-63
2024/02/03 14:16:52;;;;;;;19.52;11.43;;;;;;;;;;10256729;28;20524;-63
2024/02/03 14:21:51;;;;;;;11.90;10.68;;;;;;;;;;10256521;28;20076;-63
2024/02/03 14:26:50;;;;;;;18.50;12.10;;;;;;;;;;10258943;28;20075;-63
2024/02/03 14:31:48;;;;;;;15.27;11.60;;;;;;;;;;10258509;28;20084;-62
2024/02/03 14:36:48;;;;;;;11.45;8.57;;;;;;;;;;10258952;28;20077;-63
2024/02/03 14:41:46;;;;;;;28.20;17.80;;;;;;;;;;10256326;28;20512;-62
2024/02/03 14:46:44;;;;;;;10.68;7.68;;;;;;;;;;10256930;28;20069;-62
2024/02/03 14:51:43;;;;;;;26.67;17.38;;;;;;;;;;10255271;28;20064;-62
2024/02/03 14:56:42;;;;;;;14.02;9.85;;;;;;;;;;10251494;28;20533;-62
2024/02/03 15:01:40;;;;;;;21.73;15.75;;;;;;;;;;10253172;28;20069;-62
2024/02/03 15:06:39;;;;;;;17.45;13.13;;;;;;;;;;10255141;28;20076;-62
2024/02/03 15:11:37;;;;;;;43.53;28.00;;;;;;;;;;10255030;28;20079;-62
2024/02/03 15:16:37;;;;;;;84.63;48.90;;;;;;;;;;10253533;28;20068;-61
2024/02/03 15:21:38;;;;;;;44.17;30.88;;;;;;;;;;10255665;28;20076;-61
2024/02/03 15:26:37;;;;;;;24.10;17.58;;;;;;;;;;10258229;28;20076;-63
2024/02/03 15:31:35;;;;;;;50.28;36.25;;;;;;;;;;10257535;28;20079;-62
2024/02/03 15:36:34;;;;;;;36.03;25.10;;;;;;;;;;10258515;28;20068;-61
2024/02/03 15:41:33;;;;;;;44.97;30.48;;;;;;;;;;10256461;28;20084;-62
2024/02/03 15:46:31;;;;;;;39.33;27.20;;;;;;;;;;10251527;28;20530;-61
2024/02/03 15:51:43;;;;;;;84.45;54.35;;;;;;;;;;10257355;28;20073;-62
2024/02/03 15:56:41;;;;;;;55.20;36.85;;;;;;;;;;10249061;28;20067;-62
2024/02/03 16:01:40;;;;;;;48.22;33.65;;;;;;;;;;10255468;28;20076;-62
2024/02/03 16:06:38;;;;;;;158.52;80.50;;;;;;;;;;10244613;28;20068;-62
2024/02/03 16:11:38;;;;;;;87.60;55.45;;;;;;;;;;10245880;28;20462;-63
2024/02/03 16:16:37;;;;;;;39.50;26.88;;;;;;;;;;10248560;28;20087;-63
2024/02/03 16:21:35;;;;;;;79.45;49.17;;;;;;;;;;10247083;28;20081;-63
2024/02/03 16:26:33;;;;;;;153.13;84.85;;;;;;;;;;10244623;28;20072;-61
2024/02/03 16:31:33;;;;;;;125.60;69.40;;;;;;;;;;10243976;28;20073;-62
2024/02/03 16:36:35;;;;;;;87.90;51.83;;;;;;;;;;10255446;28;20087;-62
2024/02/03 16:41:33;;;;;;;80.82;49.08;;;;;;;;;;10250322;28;20091;-62
2024/02/03 16:46:33;;;;;;;22.60;19.50;;;;;;;;;;10250795;28;20076;-62
2024/02/03 16:51:31;;;;;;;44.65;31.35;;;;;;;;;;10252511;28;20080;-62
2024/02/03 16:56:30;;;;;;;23.50;18.15;;;;;;;;;;10252279;28;20088;-62
2024/02/03 17:01:29;;;;;;;17.98;14.43;;;;;;;;;;10246942;28;20079;-62
2024/02/03 17:06:32;;;;;;;20.67;15.15;;;;;;;;;;10249527;28;20501;-63
2024/02/03 17:11:31;;;;;;;21.60;17.05;;;;;;;;;;10249608;28;20506;-62
2024/02/03 17:16:29;;;;;;;19.45;15.70;;;;;;;;;;10254497;28;20083;-62
2024/02/03 17:21:27;;;;;;;18.05;13.80;;;;;;;;;;10252735;28;20115;-62
2024/02/03 17:26:27;;;;;;;23.23;19.27;;;;;;;;;;10250996;28;20075;-63
2024/02/03 17:31:25;;;;;;;15.55;12.30;;;;;;;;;;10250406;28;20104;-62
2024/02/03 17:36:23;;;;;;;13.95;11.18;;;;;;;;;;10252329;28;20077;-62
2024/02/03 17:41:22;;;;;;;12.70;10.65;;;;;;;;;;10255444;28;20099;-62
2024/02/03 17:46:22;;;;;;;11.30;9.57;;;;;;;;;;10259681;28;20081;-63
2024/02/03 17:51:20;;;;;;;21.08;14.40;;;;;;;;;;10258406;28;20077;-62
2024/02/03 17:56:18;;;;;;;40.20;27.80;;;;;;;;;;10256868;28;20076;-62
2024/02/03 18:01:16;;;;;;;40.85;27.88;;;;;;;;;;10257009;28;20072;-62
2024/02/03 18:06:16;;;;;;;74.80;42.38;;;;;;;;;;10258296;28;20064;-62
2024/02/03 18:11:15;;;;;;;20.88;12.85;;;;;;;;;;10255320;28;20064;-61
2024/02/03 18:16:16;;;;;;;24.92;16.50;;;;;;;;;;10255418;28;20069;-63
2024/02/03 18:21:16;;;;;;;20.02;13.65;;;;;;;;;;10256290;28;20089;-63
2024/02/03 18:26:15;;;;;;;23.55;17.83;;;;;;;;;;10255552;28;20068;-61
2024/02/03 18:31:13;;;;;;;28.75;21.00;;;;;;;;;;10252670;28;20076;-63
2024/02/03 18:36:11;;;;;;;19.40;15.50;;;;;;;;;;10254733;28;20080;-61
2024/02/03 18:41:11;;;;;;;17.60;15.73;;;;;;;;;;10255365;28;20104;-63
2024/02/03 18:46:10;;;;;;;12.80;8.75;;;;;;;;;;10255793;28;20493;-62
2024/02/03 18:51:09;;;;;;;8.93;7.72;;;;;;;;;;10254573;28;20089;-63
2024/02/03 18:56:07;;;;;;;10.52;9.43;;;;;;;;;;10251555;28;20073;-62
2024/02/03 19:01:07;;;;;;;14.77;10.43;;;;;;;;;;10253358;28;20077;-62
2024/02/03 19:06:05;;;;;;;11.43;9.70;;;;;;;;;;10253992;28;20064;-62
2024/02/03 19:11:04;;;;;;;13.68;9.90;;;;;;;;;;10254757;28;20076;-61
2024/02/03 19:16:02;;;;;;;17.30;11.55;;;;;;;;;;10254161;28;20065;-62
2024/02/03 19:21:02;;;;;;;15.70;10.82;;;;;;;;;;10254158;28;20534;-62
2024/02/03 19:26:00;;;;;;;17.23;15.32;;;;;;;;;;10254351;28;20061;-62
2024/02/03 19:30:59;;;;;;;16.35;14.68;;;;;;;;;;10251344;28;20060;-62
2024/02/03 19:35:57;;;;;;;11.00;9.75;;;;;;;;;;10250561;28;20079;-62
2024/02/03 19:40:57;;;;;;;11.35;10.25;;;;;;;;;;10254685;28;20075;-63
2024/02/03 19:45:56;;;;;;;37.80;25.67;;;;;;;;;;10254862;28;20072;-63
2024/02/03 19:50:54;;;;;;;15.10;11.95;;;;;;;;;;10253278;28;20577;-62
2024/02/03 19:55:53;;;;;;;19.58;16.45;;;;;;;;;;10253512;28;20095;-62
2024/02/03 20:00:52;;;;;;;12.77;10.77;;;;;;;;;;10253735;28;20076;-63
2024/02/03 20:05:51;;;;;;;14.25;11.90;;;;;;;;;;10252559;28;20617;-62
2024/02/03 20:10:49;;;;;;;18.88;15.23;;;;;;;;;;10251557;28;20069;-62
2024/02/03 20:15:51;;;;;;;15.77;12.80;;;;;;;;;;10253248;28;20091;-62
2024/02/03 20:20:51;;;;;;;14.00;11.52;;;;;;;;;;10253363;28;20081;-62
2024/02/03 20:25:50;;;;;;;14.52;11.50;;;;;;;;;;10253123;28;20083;-62
2024/02/03 20:30:49;;;;;;;13.30;11.43;;;;;;;;;;10251733;28;20075;-62
2024/02/03 20:35:48;;;;;;;13.07;10.82;;;;;;;;;;10252855;28;20073;-63
2024/02/03 20:40:48;;;;;;;11.60;10.40;;;;;;;;;;10250775;28;20573;-64
2024/02/03 20:45:49;;;;;;;22.98;15.80;;;;;;;;;;10248061;28;20056;-62
2024/02/03 20:50:47;;;;;;;17.10;13.07;;;;;;;;;;10252790;28;20080;-63
2024/02/03 20:55:46;;;;;;;14.05;11.25;;;;;;;;;;10252560;28;20084;-62
2024/02/03 21:00:45;;;;;;;11.50;10.30;;;;;;;;;;10250904;28;20069;-63
2024/02/03 21:05:44;;;;;;;12.02;10.43;;;;;;;;;;10251430;28;20068;-62
2024/02/03 21:10:43;;;;;;;13.80;9.90;;;;;;;;;;10251613;28;20080;-62
2024/02/03 21:15:41;;;;;;;16.00;11.35;;;;;;;;;;10256803;28;20073;-62
2024/02/03 21:20:41;;;;;;;13.77;11.13;;;;;;;;;;10259448;28;20089;-63
2024/02/03 21:25:40;;;;;;;13.77;11.43;;;;;;;;;;10258062;28;20526;-62
2024/02/03 21:30:38;;;;;;;14.73;11.02;;;;;;;;;;10257629;28;20064;-62
2024/02/03 21:35:36;;;;;;;12.15;10.68;;;;;;;;;;10257990;28;20076;-62
2024/02/03 21:40:36;;;;;;;16.23;13.93;;;;;;;;;;10255929;28;20060;-62
2024/02/03 21:45:35;;;;;;;13.25;10.50;;;;;;;;;;10257679;28;20099;-62
2024/02/03 21:50:33;;;;;;;12.95;11.18;;;;;;;;;;10257303;28;20076;-61
2024/02/03 21:55:31;;;;;;;14.38;12.30;;;;;;;;;;10256603;28;20075;-62
2024/02/03 22:00:31;;;;;;;21.40;16.25;;;;;;;;;;10259215;28;20123;-62
2024/02/03 22:05:29;;;;;;;22.85;17.35;;;;;;;;;;10256794;28;20176;-62
2024/02/03 22:10:28;;;;;;;20.35;15.18;;;;;;;;;;10257009;28;20098;-62
2024/02/03 22:15:26;;;;;;;18.02;14.27;;;;;;;;;;10256677;28;20084;-64
2024/02/03 22:20:26;;;;;;;16.98;13.20;;;;;;;;;;10254326;28;20073;-62
2024/02/03 22:25:24;;;;;;;11.02;9.70;;;;;;;;;;10256286;28;20108;-61
2024/02/03 22:30:22;;;;;;;12.13;9.88;;;;;;;;;;10258014;28;20069;-61
2024/02/03 22:35:21;;;;;;;17.13;13.10;;;;;;;;;;10255831;28;20499;-62
2024/02/03 22:40:20;;;;;;;12.82;11.27;;;;;;;;;;10256506;28;20451;-62
2024/02/03 22:45:19;;;;;;;11.00;9.77;;;;;;;;;;10255842;28;20105;-62
2024/02/03 22:50:18;;;;;;;11.35;10.25;;;;;;;;;;10254126;28;20087;-62
2024/02/03 22:55:16;;;;;;;12.55;10.35;;;;;;;;;;10256180;28;20489;-62
2024/02/03 23:00:27;;;;;;;11.98;10.38;;;;;;;;;;10252418;28;20073;-62
2024/02/03 23:05:26;;;;;;;11.35;10.02;;;;;;;;;;10253675;28;20073;-63
2024/02/03 23:10:25;;;;;;;12.23;10.75;;;;;;;;;;10253275;28;20513;-61
2024/02/03 23:15:24;;;;;;;12.10;9.98;;;;;;;;;;10255562;28;20069;-62
2024/02/03 23:20:22;;;;;;;17.27;10.10;;;;;;;;;;10253815;28;20529;-61
2024/02/03 23:25:22;;;;;;;12.98;10.80;;;;;;;;;;10252996;28;20053;-62
2024/02/03 23:30:21;;;;;;;12.25;10.95;;;;;;;;;;10254345;28;20072;-61
2024/02/03 23:35:21;;;;;;;12.90;10.82;;;;;;;;;;10254167;28;20076;-62
2024/02/03 23:40:19;;;;;;;14.52;12.55;;;;;;;;;;10252513;28;20065;-61
2024/02/03 23:45:19;;;;;;;11.65;10.07;;;;;;;;;;10252904;28;20064;-61
2024/02/03 23:50:18;;;;;;;13.65;11.07;;;;;;;;;;10254045;28;20045;-62
2024/02/03 23:55:17;;;;;;;13.43;10.90;;;;;;;;;;10252478;28;20073;-62
